EWG1MS EDDN-EDDB
Flight info
| Callsign | EWG1MS |
|---|---|
| Flight time | N/A |
| Altitude | 31000 |
| Route | ERETO1C ERETO DCT TABAT T202 MILGU/N0432F270 T202 ATGUP ATGUP1R |
| Aircraft | A320/M-SDE3FGHIRWY/LB1 |
Departure
| Time | 2026-04-28 19:12 |
|---|---|
| Airport | Nuremberg Airport (EDDN) |
Arrival
| Time | N/A |
|---|---|
| Airport | Berlin Brandenburg Airport (EDDB) |
| Time | Latitude | Longitude | Altitude | Speed | Heading |
|---|---|---|---|---|---|
| 2026-04-28 19:09 | 49.49945 | 11.05942 | 1031 ft | 0 kts | 339° |
| 2026-04-28 19:10 | 49.49947 | 11.05941 | 1031 ft | 3 kts | 339° |
| 2026-04-28 19:10 | 49.49974 | 11.05926 | 1031 ft | 2 kts | 341° |
| 2026-04-28 19:10 | 49.50029 | 11.05942 | 1032 ft | 9 kts | 16° |
| 2026-04-28 19:11 | 49.50059 | 11.05981 | 1032 ft | 3 kts | 103° |
| 2026-04-28 19:11 | 49.50035 | 11.06167 | 1032 ft | 51 kts | 99° |
| 2026-04-28 19:11 | 49.49944 | 11.07095 | 1038 ft | 120 kts | 99° |
| 2026-04-28 19:11 | 49.49789 | 11.08642 | 1134 ft | 163 kts | 99° |
| 2026-04-28 19:12 | 49.49607 | 11.10288 | 1949 ft | 154 kts | 98° |
| 2026-04-28 19:12 | 49.49458 | 11.11994 | 2404 ft | 172 kts | 98° |
| 2026-04-28 19:12 | 49.49284 | 11.13934 | 2780 ft | 193 kts | 98° |
| 2026-04-28 19:12 | 49.49115 | 11.16079 | 3200 ft | 212 kts | 91° |
| 2026-04-28 19:13 | 49.49314 | 11.18462 | 3599 ft | 237 kts | 71° |
| 2026-04-28 19:13 | 49.50118 | 11.20777 | 4198 ft | 256 kts | 50° |
| 2026-04-28 19:13 | 49.51483 | 11.22641 | 4879 ft | 269 kts | 37° |
| 2026-04-28 19:13 | 49.52960 | 11.24325 | 5782 ft | 274 kts | 36° |
| 2026-04-28 19:14 | 49.54585 | 11.25913 | 6831 ft | 272 kts | 21° |
| 2026-04-28 19:14 | 49.56478 | 11.26630 | 7702 ft | 279 kts | 9° |
| 2026-04-28 19:14 | 49.58411 | 11.27123 | 8601 ft | 283 kts | 8° |
| 2026-04-28 19:14 | 49.60359 | 11.27602 | 9487 ft | 287 kts | 8° |
| 2026-04-28 19:15 | 49.62353 | 11.28095 | 10302 ft | 295 kts | 8° |
| 2026-04-28 19:15 | 49.64461 | 11.28625 | 10652 ft | 319 kts | 9° |
| 2026-04-28 19:15 | 49.66730 | 11.29210 | 10938 ft | 342 kts | 9° |
| 2026-04-28 19:15 | 49.68304 | 11.29622 | 11250 ft | 352 kts | 9° |
| 2026-04-28 19:16 | 49.71575 | 11.30487 | 12187 ft | 360 kts | 9° |
| 2026-04-28 19:16 | 49.74056 | 11.31147 | 12930 ft | 364 kts | 9° |
| 2026-04-28 19:16 | 49.76577 | 11.31815 | 13680 ft | 368 kts | 9° |
| 2026-04-28 19:16 | 49.79189 | 11.32506 | 14426 ft | 372 kts | 9° |
| 2026-04-28 19:17 | 49.81676 | 11.33164 | 15105 ft | 376 kts | 9° |
| 2026-04-28 19:17 | 49.84267 | 11.33848 | 15780 ft | 379 kts | 9° |
| 2026-04-28 19:17 | 49.86881 | 11.34539 | 16437 ft | 383 kts | 9° |
| 2026-04-28 19:17 | 49.89521 | 11.35240 | 17072 ft | 387 kts | 9° |
| 2026-04-28 19:18 | 49.92119 | 11.35932 | 17667 ft | 390 kts | 9° |
| 2026-04-28 19:18 | 49.94851 | 11.36660 | 18266 ft | 394 kts | 9° |
| 2026-04-28 19:18 | 49.97566 | 11.37384 | 18848 ft | 398 kts | 9° |
| 2026-04-28 19:18 | 50.00303 | 11.38112 | 19402 ft | 401 kts | 9° |
| 2026-04-28 19:19 | 50.03056 | 11.38850 | 19966 ft | 404 kts | 9° |
| 2026-04-28 19:19 | 50.05839 | 11.39599 | 20512 ft | 407 kts | 9° |
| 2026-04-28 19:19 | 50.08638 | 11.40352 | 21034 ft | 410 kts | 9° |
| 2026-04-28 19:19 | 50.11463 | 11.41110 | 21542 ft | 413 kts | 9° |